Culdesac, Idaho
Current Conditions -  °F | °C
As of 10:56 AM on Monday 22 Dec 2014 (Local Time) from KLWS Reporting Station
Clear Clear  
Wind Chill: 41°   Ceiling: Unl
Heat Index: 48°   Visibility: 10mi
Dew Point: 31°   Wind: 21mph
Humidity: 52%   Direction: 290°WNW
Pressure: 30.21"   Gusts: 26mph
Location:  46.37°N, 116.67°W
Report Text: KLWS 221856Z AUTO 29018G23KT 10SM CLR 09/M01 A3021 RMK AO2 PK WND 29027/1826 RAE35 SLP233 P0000 T00891006
Loading
Personal Weather Stations






























Interactive Weather Map New forecast layout! Learn more

10-Day Weather Forecast

Advertisements
Track Severe Weather on mobile